Terminal Aerodrome Forecast
Issued by NWS Duluth, MN

Home | Current Version | Previous Version | Text Only | Print | Product List | Glossary On
Versions: 1 2 3 4 5 6 7 8 9 10 11 12 13 14 15 16 17 18 19 20
000
FTUS43 KDLH 131400 AAC
TAFINL
TAF AMD
KINL 131425Z 1314/1412 30017G24KT P6SM OVC010
     FM131800 32015G24KT P6SM BKN025
     FM132200 32015G24KT P6SM BKN040
     FM140300 33012KT P6SM SCT050=

USA.gov is the U.S. government's official web portal to all federal, state and local government web resources and services.